Awajishima — JD4140 — position and weather

sailwx.info

Track history (hours):
 
Tides and Currents Weather Stations Pressure Air Temp Water Temp Dewpoint Dewpoint Depression Visibility Wind Speed Wind Dir Waves Ship Positions

Awajishima

Last reported at 2018-Feb-14 20:12 UTC. Time now 2018-Feb-18 20:30 UTC.
Position N 34°26' E 130°54'.

Length 105 m; draft 6.6 m.

Type: Tanker. MMSI: 431009313.

Date/timePositionNaut miles runAvg speedWind from/ knotsBaromVisibWave heightAir tempDewpointWater temp
2018-Feb-14 20:12N 34°26' E 130°54'412.8
2018-Feb-14 19:55N 34°24' E 130°50'511.4
2018-Feb-14 19:30N 34°19' E 130°49'613.1
2018-Feb-14 19:00N 34°13' E 130°50'713.4
2018-Feb-14 18:30N 34°06' E 130°51'612.9
2018-Feb-14 18:00N 33°60' E 130°53'510.3
2018-Feb-14 17:30N 33°55' E 130°54'4 7.7
2018-Feb-14 17:01N 33°58' E 130°57'3 6.2
2018-Feb-14 16:30N 33°59' E 131°01'612.4
2018-Feb-14 16:00N 33°55' E 131°07'612.6
2018-Feb-14 15:31N 33°52' E 131°13'713.0
2018-Feb-14 15:00N 33°50' E 131°21'713.2
2018-Feb-14 14:30N 33°49' E 131°29'713.1
2018-Feb-14 14:00N 33°47' E 131°36'612.6
2018-Feb-14 13:30N 33°45' E 131°43'612.9
2018-Feb-14 13:00N 33°39' E 131°45'712.8
2018-Feb-14 12:29N 33°32' E 131°47'713.6
2018-Feb-14 12:00N 33°26' E 131°46'813.9
2018-Feb-14 11:26N 33°19' E 131°42'2 0.5
2018-Feb-14 06:38N 33°17' E 131°41'1 3.0
2018-Feb-14 06:20N 33°17' E 131°41'0 0.3
2018-Feb-14 06:00N 33°18' E 131°41'3 6.2
2018-Feb-14 05:30N 33°20' E 131°42'1 1.2
2018-Feb-14 04:36N 33°22' E 131°42'0 0.0
2018-Feb-14 04:18N 33°22' E 131°42'0 0.1
2018-Feb-14 04:00N 33°22' E 131°42'0 0.1
2018-Feb-14 03:24N 33°21' E 131°42'0 0.0
2018-Feb-14 03:00N 33°21' E 131°42'0 0.0
2018-Feb-14 02:30N 33°21' E 131°42'0 0.2
2018-Feb-14 01:54N 33°22' E 131°42'511.4
2018-Feb-14 01:28N 33°26' E 131°46'714.0
2018-Feb-14 00:59N 33°32' E 131°47'714.8
2018-Feb-14 00:30N 33°39' E 131°47'714.3
2018-Feb-14 00:00N 33°46' E 131°46'714.5
2018-Feb-13 23:30N 33°54' E 131°45'612.7
2018-Feb-13 23:00N 33°60' E 131°46'0 0.8
2018-Feb-13 22:27N 33°60' E 131°46'0 0.1
2018-Feb-13 21:56N 33°60' E 131°46'0 0.0
2018-Feb-13 21:20N 33°60' E 131°46'0 0.0
2018-Feb-13 20:45N 33°60' E 131°46'0 0.0
2018-Feb-13 20:27N 33°60' E 131°46'0 0.0
2018-Feb-13 19:57N 33°60' E 131°46'0 0.1
2018-Feb-13 19:21N 33°60' E 131°46'0 0.1
2018-Feb-13 18:45N 33°60' E 131°46'0 0.2
2018-Feb-13 18:26N 33°60' E 131°46'0 0.0
2018-Feb-13 17:02N 33°60' E 131°46'0 0.1
2018-Feb-13 16:56N 33°60' E 131°46'0 0.0
2018-Feb-13 16:26N 33°60' E 131°46'0 0.0
2018-Feb-13 15:57N 33°60' E 131°46'0 0.0
2018-Feb-13 15:26N 33°60' E 131°46'0 0.0
2018-Feb-13 14:57N 33°60' E 131°46'0 0.0
2018-Feb-13 14:27N 33°60' E 131°46'0 0.0
2018-Feb-13 13:56N 33°60' E 131°46'0 0.0
2018-Feb-13 13:27N 33°60' E 131°46'0 0.0
2018-Feb-13 12:15N 33°60' E 131°46'0 0.0
2018-Feb-13 11:56N 33°60' E 131°46'0 0.0
2018-Feb-13 11:20N 33°60' E 131°46'0 0.0
2018-Feb-13 10:57N 33°60' E 131°46'0 0.1
2018-Feb-13 10:20N 33°60' E 131°46'0 0.0
2018-Feb-13 09:57N 33°60' E 131°46'0 0.0
2018-Feb-13 09:26N 33°60' E 131°46'0 0.0
2018-Feb-13 08:54N 33°60' E 131°46'0 0.0
2018-Feb-13 08:21N 33°60' E 131°46'0 0.0
2018-Feb-13 07:56N 33°60' E 131°46'0 0.0
2018-Feb-13 07:27N 33°60' E 131°46'0 0.0
2018-Feb-13 06:57N 33°60' E 131°46'0 0.0
2018-Feb-13 06:20N 33°60' E 131°46'0 0.0
2018-Feb-13 05:57N 33°60' E 131°46'0 0.0
2018-Feb-13 05:27N 33°60' E 131°46'0 0.0
2018-Feb-13 04:56N 33°60' E 131°46'0 0.0
2018-Feb-13 04:20N 33°60' E 131°46'0 0.1
2018-Feb-13 03:57N 33°60' E 131°46'0 0.0
2018-Feb-13 03:08N 33°60' E 131°46'0 0.0
2018-Feb-13 02:57N 33°60' E 131°46'1 3.2
2018-Feb-13 02:29N 34°01' E 131°48'2 0.5
2018-Feb-12 23:22N 34°02' E 131°49'2 4.7
2018-Feb-12 22:58N 34°01' E 131°47'0 0.1
2018-Feb-12 22:16N 34°01' E 131°47'0 0.0
2018-Feb-12 21:46N 34°01' E 131°47'0 0.0
2018-Feb-12 21:28N 34°01' E 131°47'0 0.0
2018-Feb-12 20:58N 34°01' E 131°47'0 0.0
2018-Feb-12 20:28N 34°01' E 131°47'0 0.0
2018-Feb-12 19:58N 34°01' E 131°47'0 0.0
2018-Feb-12 19:22N 34°01' E 131°47'0 0.0
2018-Feb-12 18:52N 34°01' E 131°47'0 0.0
2018-Feb-12 18:08N 34°01' E 131°47'0 0.0
2018-Feb-12 17:56N 34°01' E 131°47'0 0.0
2018-Feb-12 17:20N 34°01' E 131°47'0 0.0
2018-Feb-12 16:56N 34°01' E 131°47'0 0.0
2018-Feb-12 16:26N 34°01' E 131°47'0 0.0
2018-Feb-12 15:38N 34°01' E 131°47'0 0.0
2018-Feb-12 15:14N 34°01' E 131°47'0 0.0
2018-Feb-12 14:56N 34°01' E 131°47'0 0.0
2018-Feb-12 14:26N 34°01' E 131°47'0 0.1
2018-Feb-12 13:56N 34°01' E 131°47'0 0.1
2018-Feb-12 13:26N 34°01' E 131°47'0 0.1
2018-Feb-12 12:50N 34°01' E 131°47'0 0.0
2018-Feb-12 12:26N 34°01' E 131°47'0 0.1
2018-Feb-12 11:56N 34°01' E 131°47'0 0.1
2018-Feb-12 11:20N 34°01' E 131°47'0 0.0
2018-Feb-12 10:56N 34°01' E 131°47'0 0.0
2018-Feb-12 10:26N 34°01' E 131°47'0 0.0
2018-Feb-12 09:56N 34°01' E 131°47'0 0.0
2018-Feb-12 09:26N 34°01' E 131°47'0 0.2
2018-Feb-12 09:00N 34°01' E 131°47'2 0.3
2018-Feb-12 03:03N 34°02' E 131°48'0 3.2
2018-Feb-12 03:00N 34°02' E 131°49'1 1.3
2018-Feb-12 02:30N 34°01' E 131°48'1 1.9
2018-Feb-12 01:55N 34°01' E 131°47'0 0.0
2018-Feb-12 01:25N 34°01' E 131°47'0 0.0
2018-Feb-12 00:55N 34°01' E 131°47'0 0.1
2018-Feb-12 00:25N 34°01' E 131°47'0 0.1
2018-Feb-12 00:01N 34°01' E 131°47'4 7.9
2018-Feb-11 23:29N 33°57' E 131°45'612.5
2018-Feb-11 23:01N 33°51' E 131°48'612.5
2018-Feb-11 22:30N 33°45' E 131°50'713.0
2018-Feb-11 22:00N 33°39' E 131°53'713.8
2018-Feb-11 21:29N 33°32' E 131°55'713.9
2018-Feb-11 21:00N 33°26' E 131°58'813.9
2018-Feb-11 20:27N 33°19' E 132°01'713.6
2018-Feb-11 19:55N 33°13' E 132°06'31510.9
2018-Feb-10 15:01N 34°32' E 138°13'113.4
2018-Feb-10 14:58N 34°32' E 138°13'613.3
2018-Feb-10 14:30N 34°32' E 138°21'713.6
2018-Feb-10 14:00N 34°32' E 138°29'814.1
2018-Feb-10 13:26N 34°33' E 138°39'613.8
2018-Feb-10 13:00N 34°33' E 138°46'612.7
2018-Feb-10 12:30N 34°33' E 138°54'611.9
2018-Feb-10 12:00N 34°36' E 139°00'612.6
2018-Feb-10 11:29N 34°41' E 139°05'612.5
2018-Feb-10 10:59N 34°46' E 139°09'613.2
2018-Feb-10 10:30N 34°51' E 139°14'612.1
2018-Feb-10 10:00N 34°56' E 139°19'612.3
2018-Feb-10 09:30N 34°59' E 139°26'612.4
2018-Feb-10 09:00N 35°02' E 139°32'612.9
2018-Feb-10 08:30N 35°05' E 139°39'612.4
2018-Feb-10 07:59N 35°10' E 139°45'612.5
2018-Feb-10 07:31N 35°15' E 139°46'612.7
2018-Feb-10 07:00N 35°21' E 139°42'612.0
2018-Feb-10 06:30N 35°26' E 139°46'713.5
2018-Feb-10 06:00N 35°30' E 139°52'613.0
2018-Feb-10 05:30N 35°31' E 140°00'1 0.2
2018-Feb-09 23:06N 35°30' E 140°01'0 2.9
2018-Feb-09 23:00N 35°30' E 140°01'1 4.9
2018-Feb-09 22:46N 35°31' E 139°60'6 4.4
2018-Feb-09 21:31N 35°29' E 139°53'1211.8
2018-Feb-09 20:30N 35°20' E 139°44'1111.5
2018-Feb-09 19:30N 35°09' E 139°47'713.3
2018-Feb-09 19:01N 35°02' E 139°45'56 6.9
2018-Feb-09 11:00N 34°45' E 138°40'612.8
2018-Feb-09 10:30N 34°52' E 138°41'1711.1
2018-Feb-09 09:00N 35°08' E 138°42'0 0.0
2018-Feb-09 07:00N 35°08' E 138°42'0 0.0
2018-Feb-09 06:30N 35°08' E 138°42'0 0.0
2018-Feb-09 06:00N 35°08' E 138°42'0 0.0
2018-Feb-09 05:00N 35°08' E 138°42'0 0.0
2018-Feb-09 04:00N 35°08' E 138°42'0 0.0
2018-Feb-09 03:00N 35°08' E 138°42'0 0.0
2018-Feb-09 02:30N 35°08' E 138°42'0 0.0
2018-Feb-09 02:00N 35°08' E 138°42'0 0.0
2018-Feb-08 23:30N 35°08' E 138°42'4 4.4
2018-Feb-08 22:30N 35°04' E 138°42'3 5.3
2018-Feb-08 22:00N 35°02' E 138°41'21 7.0
2018-Feb-08 19:00N 34°41' E 138°40'5510.0
2018-Feb-08 13:30N 35°06' E 139°39'1212.2
2018-Feb-08 12:30N 35°17' E 139°45'1111.0
2018-Feb-08 11:30N 35°28' E 139°48'611.5
2018-Feb-08 11:00N 35°29' E 139°55'5 1.4
2018-Feb-08 07:30N 35°30' E 140°01'1 0.4
2018-Feb-08 04:00N 35°31' E 140°02'0 0.0
2018-Feb-07 22:09N 35°31' E 140°02'0 2.8
2018-Feb-07 22:00N 35°31' E 140°02'4 8.6
2018-Feb-07 21:31N 35°30' E 139°57'4 0.2
2018-Feb-07 04:14N 35°30' E 140°02'1 3.4
2018-Feb-07 04:00N 35°30' E 140°01'3 2.7
2018-Feb-07 03:00N 35°30' E 139°58'2 3.2
2018-Feb-07 02:18N 35°29' E 139°55'0 0.2
2018-Feb-07 02:00N 35°29' E 139°55'0 0.0
2018-Feb-07 01:24N 35°29' E 139°55'0 0.3
2018-Feb-07 01:00N 35°29' E 139°55'611.4
2018-Feb-07 00:30N 35°26' E 139°49'612.4
2018-Feb-07 00:00N 35°21' E 139°45'1110.7
2018-Feb-06 23:00N 35°10' E 139°46'1613.2
2018-Feb-06 21:48N 34°55' E 139°46'1410.7
2018-Feb-06 20:32N 34°55' E 140°02'113.3
2018-Feb-06 20:29N 34°56' E 140°03'39612.8
2018-Feb-05 13:35N 41°25' E 141°36'512.9
2018-Feb-05 13:13N 41°30' E 141°35'1014.8
2018-Feb-05 12:33N 41°39' E 141°35'513.9
2018-Feb-05 12:11N 41°45' E 141°35'  
Track history (hours):
 
Tides and Currents Weather Stations Pressure Air Temp Water Temp Dewpoint Dewpoint Depression Visibility Wind Speed Wind Dir Waves Ship Positions

Awajishima

Last reported at 2018-Feb-14 20:12 UTC. Time now 2018-Feb-18 20:30 UTC.
Position N 34°26' E 130°54'.

Length 105 m; draft 6.6 m.

Type: Tanker. MMSI: 431009313.

Date/timePositionNaut miles runAvg speedWind from/ knotsBaromVisibWave heightAir tempDewpointWater temp
2018-Feb-14 20:12N 34°26' E 130°54'412.8
2018-Feb-14 19:55N 34°24' E 130°50'511.4
2018-Feb-14 19:30N 34°19' E 130°49'613.1
2018-Feb-14 19:00N 34°13' E 130°50'713.4
2018-Feb-14 18:30N 34°06' E 130°51'612.9
2018-Feb-14 18:00N 33°60' E 130°53'510.3
2018-Feb-14 17:30N 33°55' E 130°54'4 7.7
2018-Feb-14 17:01N 33°58' E 130°57'3 6.2
2018-Feb-14 16:30N 33°59' E 131°01'612.4
2018-Feb-14 16:00N 33°55' E 131°07'612.6
2018-Feb-14 15:31N 33°52' E 131°13'713.0
2018-Feb-14 15:00N 33°50' E 131°21'713.2
2018-Feb-14 14:30N 33°49' E 131°29'713.1
2018-Feb-14 14:00N 33°47' E 131°36'612.6
2018-Feb-14 13:30N 33°45' E 131°43'612.9
2018-Feb-14 13:00N 33°39' E 131°45'712.8
2018-Feb-14 12:29N 33°32' E 131°47'713.6
2018-Feb-14 12:00N 33°26' E 131°46'813.9
2018-Feb-14 11:26N 33°19' E 131°42'2 0.5
2018-Feb-14 06:38N 33°17' E 131°41'1 3.0
2018-Feb-14 06:20N 33°17' E 131°41'0 0.3
2018-Feb-14 06:00N 33°18' E 131°41'3 6.2
2018-Feb-14 05:30N 33°20' E 131°42'1 1.2
2018-Feb-14 04:36N 33°22' E 131°42'0 0.0
2018-Feb-14 04:18N 33°22' E 131°42'0 0.1
2018-Feb-14 04:00N 33°22' E 131°42'0 0.1
2018-Feb-14 03:24N 33°21' E 131°42'0 0.0
2018-Feb-14 03:00N 33°21' E 131°42'0 0.0
2018-Feb-14 02:30N 33°21' E 131°42'0 0.2
2018-Feb-14 01:54N 33°22' E 131°42'511.4
2018-Feb-14 01:28N 33°26' E 131°46'714.0
2018-Feb-14 00:59N 33°32' E 131°47'714.8
2018-Feb-14 00:30N 33°39' E 131°47'714.3
2018-Feb-14 00:00N 33°46' E 131°46'714.5
2018-Feb-13 23:30N 33°54' E 131°45'612.7
2018-Feb-13 23:00N 33°60' E 131°46'0 0.8
2018-Feb-13 22:27N 33°60' E 131°46'0 0.1
2018-Feb-13 21:56N 33°60' E 131°46'0 0.0
2018-Feb-13 21:20N 33°60' E 131°46'0 0.0
2018-Feb-13 20:45N 33°60' E 131°46'0 0.0
2018-Feb-13 20:27N 33°60' E 131°46'0 0.0
2018-Feb-13 19:57N 33°60' E 131°46'0 0.1
2018-Feb-13 19:21N 33°60' E 131°46'0 0.1
2018-Feb-13 18:45N 33°60' E 131°46'0 0.2
2018-Feb-13 18:26N 33°60' E 131°46'0 0.0
2018-Feb-13 17:02N 33°60' E 131°46'0 0.1
2018-Feb-13 16:56N 33°60' E 131°46'0 0.0
2018-Feb-13 16:26N 33°60' E 131°46'0 0.0
2018-Feb-13 15:57N 33°60' E 131°46'0 0.0
2018-Feb-13 15:26N 33°60' E 131°46'0 0.0
2018-Feb-13 14:57N 33°60' E 131°46'0 0.0
2018-Feb-13 14:27N 33°60' E 131°46'0 0.0
2018-Feb-13 13:56N 33°60' E 131°46'0 0.0
2018-Feb-13 13:27N 33°60' E 131°46'0 0.0
2018-Feb-13 12:15N 33°60' E 131°46'0 0.0
2018-Feb-13 11:56N 33°60' E 131°46'0 0.0
2018-Feb-13 11:20N 33°60' E 131°46'0 0.0
2018-Feb-13 10:57N 33°60' E 131°46'0 0.1
2018-Feb-13 10:20N 33°60' E 131°46'0 0.0
2018-Feb-13 09:57N 33°60' E 131°46'0 0.0
2018-Feb-13 09:26N 33°60' E 131°46'0 0.0
2018-Feb-13 08:54N 33°60' E 131°46'0 0.0
2018-Feb-13 08:21N 33°60' E 131°46'0 0.0
2018-Feb-13 07:56N 33°60' E 131°46'0 0.0
2018-Feb-13 07:27N 33°60' E 131°46'0 0.0
2018-Feb-13 06:57N 33°60' E 131°46'0 0.0
2018-Feb-13 06:20N 33°60' E 131°46'0 0.0
2018-Feb-13 05:57N 33°60' E 131°46'0 0.0
2018-Feb-13 05:27N 33°60' E 131°46'0 0.0
2018-Feb-13 04:56N 33°60' E 131°46'0 0.0
2018-Feb-13 04:20N 33°60' E 131°46'0 0.1
2018-Feb-13 03:57N 33°60' E 131°46'0 0.0
2018-Feb-13 03:08N 33°60' E 131°46'0 0.0
2018-Feb-13 02:57N 33°60' E 131°46'1 3.2
2018-Feb-13 02:29N 34°01' E 131°48'2 0.5
2018-Feb-12 23:22N 34°02' E 131°49'2 4.7
2018-Feb-12 22:58N 34°01' E 131°47'0 0.1
2018-Feb-12 22:16N 34°01' E 131°47'0 0.0
2018-Feb-12 21:46N 34°01' E 131°47'0 0.0
2018-Feb-12 21:28N 34°01' E 131°47'0 0.0
2018-Feb-12 20:58N 34°01' E 131°47'0 0.0
2018-Feb-12 20:28N 34°01' E 131°47'0 0.0
2018-Feb-12 19:58N 34°01' E 131°47'0 0.0
2018-Feb-12 19:22N 34°01' E 131°47'0 0.0
2018-Feb-12 18:52N 34°01' E 131°47'0 0.0
2018-Feb-12 18:08N 34°01' E 131°47'0 0.0
2018-Feb-12 17:56N 34°01' E 131°47'0 0.0
2018-Feb-12 17:20N 34°01' E 131°47'0 0.0
2018-Feb-12 16:56N 34°01' E 131°47'0 0.0
2018-Feb-12 16:26N 34°01' E 131°47'0 0.0
2018-Feb-12 15:38N 34°01' E 131°47'0 0.0
2018-Feb-12 15:14N 34°01' E 131°47'0 0.0
2018-Feb-12 14:56N 34°01' E 131°47'0 0.0
2018-Feb-12 14:26N 34°01' E 131°47'0 0.1
2018-Feb-12 13:56N 34°01' E 131°47'0 0.1
2018-Feb-12 13:26N 34°01' E 131°47'0 0.1
2018-Feb-12 12:50N 34°01' E 131°47'0 0.0
2018-Feb-12 12:26N 34°01' E 131°47'0 0.1
2018-Feb-12 11:56N 34°01' E 131°47'0 0.1
2018-Feb-12 11:20N 34°01' E 131°47'0 0.0
2018-Feb-12 10:56N 34°01' E 131°47'0 0.0
2018-Feb-12 10:26N 34°01' E 131°47'0 0.0
2018-Feb-12 09:56N 34°01' E 131°47'0 0.0
2018-Feb-12 09:26N 34°01' E 131°47'0 0.2
2018-Feb-12 09:00N 34°01' E 131°47'2 0.3
2018-Feb-12 03:03N 34°02' E 131°48'0 3.2
2018-Feb-12 03:00N 34°02' E 131°49'1 1.3
2018-Feb-12 02:30N 34°01' E 131°48'1 1.9
2018-Feb-12 01:55N 34°01' E 131°47'0 0.0
2018-Feb-12 01:25N 34°01' E 131°47'0 0.0
2018-Feb-12 00:55N 34°01' E 131°47'0 0.1
2018-Feb-12 00:25N 34°01' E 131°47'0 0.1
2018-Feb-12 00:01N 34°01' E 131°47'4 7.9
2018-Feb-11 23:29N 33°57' E 131°45'612.5
2018-Feb-11 23:01N 33°51' E 131°48'612.5
2018-Feb-11 22:30N 33°45' E 131°50'713.0
2018-Feb-11 22:00N 33°39' E 131°53'713.8
2018-Feb-11 21:29N 33°32' E 131°55'713.9
2018-Feb-11 21:00N 33°26' E 131°58'813.9
2018-Feb-11 20:27N 33°19' E 132°01'713.6
2018-Feb-11 19:55N 33°13' E 132°06'31510.9
2018-Feb-10 15:01N 34°32' E 138°13'113.4
2018-Feb-10 14:58N 34°32' E 138°13'613.3
2018-Feb-10 14:30N 34°32' E 138°21'713.6
2018-Feb-10 14:00N 34°32' E 138°29'814.1
2018-Feb-10 13:26N 34°33' E 138°39'613.8
2018-Feb-10 13:00N 34°33' E 138°46'612.7
2018-Feb-10 12:30N 34°33' E 138°54'611.9
2018-Feb-10 12:00N 34°36' E 139°00'612.6
2018-Feb-10 11:29N 34°41' E 139°05'612.5
2018-Feb-10 10:59N 34°46' E 139°09'613.2
2018-Feb-10 10:30N 34°51' E 139°14'612.1
2018-Feb-10 10:00N 34°56' E 139°19'612.3
2018-Feb-10 09:30N 34°59' E 139°26'612.4
2018-Feb-10 09:00N 35°02' E 139°32'612.9
2018-Feb-10 08:30N 35°05' E 139°39'612.4
2018-Feb-10 07:59N 35°10' E 139°45'612.5
2018-Feb-10 07:31N 35°15' E 139°46'612.7
2018-Feb-10 07:00N 35°21' E 139°42'612.0
2018-Feb-10 06:30N 35°26' E 139°46'713.5
2018-Feb-10 06:00N 35°30' E 139°52'613.0
2018-Feb-10 05:30N 35°31' E 140°00'1 0.2
2018-Feb-09 23:06N 35°30' E 140°01'0 2.9
2018-Feb-09 23:00N 35°30' E 140°01'1 4.9
2018-Feb-09 22:46N 35°31' E 139°60'6 4.4
2018-Feb-09 21:31N 35°29' E 139°53'1211.8
2018-Feb-09 20:30N 35°20' E 139°44'1111.5
2018-Feb-09 19:30N 35°09' E 139°47'713.3
2018-Feb-09 19:01N 35°02' E 139°45'56 6.9
2018-Feb-09 11:00N 34°45' E 138°40'612.8
2018-Feb-09 10:30N 34°52' E 138°41'1711.1
2018-Feb-09 09:00N 35°08' E 138°42'0 0.0
2018-Feb-09 07:00N 35°08' E 138°42'0 0.0
2018-Feb-09 06:30N 35°08' E 138°42'0 0.0
2018-Feb-09 06:00N 35°08' E 138°42'0 0.0
2018-Feb-09 05:00N 35°08' E 138°42'0 0.0
2018-Feb-09 04:00N 35°08' E 138°42'0 0.0
2018-Feb-09 03:00N 35°08' E 138°42'0 0.0
2018-Feb-09 02:30N 35°08' E 138°42'0 0.0
2018-Feb-09 02:00N 35°08' E 138°42'0 0.0
2018-Feb-08 23:30N 35°08' E 138°42'4 4.4
2018-Feb-08 22:30N 35°04' E 138°42'3 5.3
2018-Feb-08 22:00N 35°02' E 138°41'21 7.0
2018-Feb-08 19:00N 34°41' E 138°40'5510.0
2018-Feb-08 13:30N 35°06' E 139°39'1212.2
2018-Feb-08 12:30N 35°17' E 139°45'1111.0
2018-Feb-08 11:30N 35°28' E 139°48'611.5
2018-Feb-08 11:00N 35°29' E 139°55'5 1.4
2018-Feb-08 07:30N 35°30' E 140°01'1 0.4
2018-Feb-08 04:00N 35°31' E 140°02'0 0.0
2018-Feb-07 22:09N 35°31' E 140°02'0 2.8
2018-Feb-07 22:00N 35°31' E 140°02'4 8.6
2018-Feb-07 21:31N 35°30' E 139°57'4 0.2
2018-Feb-07 04:14N 35°30' E 140°02'1 3.4
2018-Feb-07 04:00N 35°30' E 140°01'3 2.7
2018-Feb-07 03:00N 35°30' E 139°58'2 3.2
2018-Feb-07 02:18N 35°29' E 139°55'0 0.2
2018-Feb-07 02:00N 35°29' E 139°55'0 0.0
2018-Feb-07 01:24N 35°29' E 139°55'0 0.3
2018-Feb-07 01:00N 35°29' E 139°55'611.4
2018-Feb-07 00:30N 35°26' E 139°49'612.4
2018-Feb-07 00:00N 35°21' E 139°45'1110.7
2018-Feb-06 23:00N 35°10' E 139°46'1613.2
2018-Feb-06 21:48N 34°55' E 139°46'1410.7
2018-Feb-06 20:32N 34°55' E 140°02'113.3
2018-Feb-06 20:29N 34°56' E 140°03'39612.8
2018-Feb-05 13:35N 41°25' E 141°36'512.9
2018-Feb-05 13:13N 41°30' E 141°35'1014.8
2018-Feb-05 12:33N 41°39' E 141°35'513.9
2018-Feb-05 12:11N 41°45' E 141°35'  

Dump ship's entire track history